Time;durP1;ratioP1;P1;durP2;ratioP2;P2;SDS_P1;SDS_P2;PMS_P1;PMS_P2;Temp;Humidity;BMP_temperature;BMP_pressure;BME280_temperature;BME280_humidity;BME280_pressure;Samples;Min_cycle;Max_cycle;Signal;HPM_P1;HPM_P2
2021/12/23 00:00:17;;;;;;;2.90;2.70;;;21.80;59.30;;;;;;5053048;28;20441;-62
2021/12/23 00:02:43;;;;;;;2.27;2.07;;;21.80;59.20;;;;;;5053072;28;20782;-62
2021/12/23 00:05:12;;;;;;;2.87;2.67;;;21.80;59.20;;;;;;5053025;28;20429;-62
2021/12/23 00:07:38;;;;;;;2.80;2.60;;;21.80;59.20;;;;;;5052885;28;20444;-63
2021/12/23 00:10:07;;;;;;;3.00;2.80;;;21.80;59.20;;;;;;5052997;28;20437;-64
2021/12/23 00:12:37;;;;;;;2.67;2.47;;;21.80;59.20;;;;;;5052782;28;20850;-61
2021/12/23 00:15:08;;;;;;;2.30;2.10;;;21.80;59.10;;;;;;5053237;28;20456;-63
2021/12/23 00:17:59;;;;;;;2.77;2.57;;;21.80;59.20;;;;;;5053003;28;20475;-62
2021/12/23 00:23:28;;;;;;;2.73;2.53;;;21.80;59.20;;;;;;5053040;28;20424;-62
2021/12/23 00:26:01;;;;;;;2.70;2.50;;;21.80;59.20;;;;;;5053024;28;20430;-62
2021/12/23 00:28:29;;;;;;;2.70;2.50;;;21.80;59.20;;;;;;5052695;28;20503;-63
2021/12/23 00:30:55;;;;;;;2.23;2.10;;;21.80;59.20;;;;;;5052856;28;20440;-64
2021/12/23 00:33:24;;;;;;;2.50;2.30;;;21.80;59.10;;;;;;5053004;28;20442;-64
2021/12/23 00:35:52;;;;;;;2.90;2.70;;;21.80;59.10;;;;;;5052893;28;20444;-62
2021/12/23 00:38:24;;;;;;;2.70;2.50;;;21.70;59.10;;;;;;5052811;28;20442;-62
2021/12/23 00:40:52;;;;;;;2.80;2.60;;;21.70;59.10;;;;;;5055012;28;20497;-62
2021/12/23 00:43:19;;;;;;;3.00;2.80;;;21.70;59.10;;;;;;5056318;28;20527;-62
2021/12/23 00:45:46;;;;;;;2.47;2.27;;;21.70;59.10;;;;;;5056485;28;20437;-64
2021/12/23 00:48:13;;;;;;;2.67;2.47;;;21.70;59.10;;;;;;5056485;28;20445;-62
2021/12/23 00:50:41;;;;;;;2.80;2.60;;;21.80;59.10;;;;;;5056452;28;20916;-62
2021/12/23 00:53:10;;;;;;;2.77;2.57;;;21.80;59.10;;;;;;5056144;28;20481;-62
2021/12/23 00:55:37;;;;;;;2.77;2.57;;;21.80;59.10;;;;;;5056184;28;20470;-62
2021/12/23 00:58:04;;;;;;;3.30;2.50;;;21.80;59.70;;;;;;5056254;28;20448;-64
2021/12/23 01:00:32;;;;;;;2.23;2.13;;;21.80;59.10;;;;;;5055930;28;20947;-62
2021/12/23 01:03:00;;;;;;;3.37;2.90;;;21.80;59.10;;;;;;5056279;28;20789;-62
2021/12/23 01:05:28;;;;;;;2.70;2.50;;;21.80;59.10;;;;;;5056058;28;20499;-62
2021/12/23 01:07:56;;;;;;;3.13;2.93;;;21.70;59.00;;;;;;5056202;28;20842;-62
2021/12/23 01:10:24;;;;;;;2.50;2.30;;;21.80;59.10;;;;;;5056045;28;20435;-64
2021/12/23 01:12:57;;;;;;;2.67;2.47;;;21.80;59.10;;;;;;5055759;28;20488;-62
2021/12/23 01:18:14;;;;;;;2.27;2.07;;;21.70;59.00;;;;;;5038408;28;20429;-62
2021/12/23 01:20:50;;;;;;;2.70;2.50;;;21.70;59.00;;;;;;5055889;28;20533;-62
2021/12/23 01:23:20;;;;;;;2.60;2.40;;;21.70;59.00;;;;;;5055875;28;20442;-62
2021/12/23 01:25:47;;;;;;;2.10;2.00;;;21.70;59.00;;;;;;5055750;28;20441;-62
2021/12/23 01:28:14;;;;;;;2.93;2.73;;;21.70;58.90;;;;;;5055692;28;20936;-62
2021/12/23 01:30:42;;;;;;;2.47;2.27;;;21.70;59.00;;;;;;5055782;28;20433;-62
2021/12/23 01:33:10;;;;;;;2.37;2.20;;;21.70;59.00;;;;;;5055703;28;20579;-62
2021/12/23 01:35:39;;;;;;;2.40;2.20;;;21.70;59.00;;;;;;5055536;28;20449;-62
2021/12/23 01:38:07;;;;;;;3.13;2.87;;;21.70;59.00;;;;;;5055636;28;20441;-62
2021/12/23 01:40:35;;;;;;;2.20;2.00;;;21.70;59.00;;;;;;5055130;28;20796;-62
2021/12/23 01:43:03;;;;;;;2.30;2.10;;;21.70;58.90;;;;;;5055195;28;20458;-62
2021/12/23 01:45:33;;;;;;;2.97;2.73;;;21.70;58.90;;;;;;5055441;28;20442;-63
2021/12/23 01:48:01;;;;;;;2.17;2.07;;;21.70;59.50;;;;;;5055355;28;20444;-62
2021/12/23 01:50:29;;;;;;;2.70;2.50;;;21.70;58.90;;;;;;5054824;28;20452;-62
2021/12/23 01:52:57;;;;;;;2.43;2.23;;;21.70;58.90;;;;;;5055137;28;20485;-62
2021/12/23 01:55:23;;;;;;;2.30;2.20;;;21.70;59.50;;;;;;5055299;28;20945;-64
2021/12/23 01:57:52;;;;;;;2.47;2.27;;;21.70;59.00;;;;;;5055114;28;20441;-62
2021/12/23 02:00:22;;;;;;;2.53;2.00;;;21.70;58.90;;;;;;5055071;28;20448;-62
2021/12/23 02:02:51;;;;;;;2.83;2.63;;;21.70;59.00;;;;;;5055038;28;20785;-62
2021/12/23 02:05:17;;;;;;;2.20;2.10;;;21.70;59.00;;;;;;5055008;28;20451;-62
2021/12/23 02:07:44;;;;;;;2.30;2.10;;;21.70;59.00;;;;;;5054756;28;20442;-63
2021/12/23 02:10:11;;;;;;;2.47;2.27;;;21.70;58.90;;;;;;5055058;28;20467;-62
2021/12/23 02:12:40;;;;;;;2.40;2.20;;;21.70;58.90;;;;;;5054637;28;20490;-64
2021/12/23 02:15:09;;;;;;;1.93;1.77;;;21.70;58.90;;;;;;5054715;28;20437;-64
2021/12/23 02:17:37;;;;;;;2.20;2.00;;;21.70;58.90;;;;;;5054881;28;20446;-60
2021/12/23 02:20:07;;;;;;;2.23;2.13;;;21.80;59.00;;;;;;5054703;28;20434;-60
2021/12/23 02:22:33;;;;;;;2.10;1.97;;;21.70;58.90;;;;;;5054648;28;20913;-62
2021/12/23 02:25:00;;;;;;;2.60;2.40;;;21.70;58.90;;;;;;5054525;28;20803;-60
2021/12/23 02:27:27;;;;;;;2.43;2.23;;;21.70;58.80;;;;;;5054701;28;20448;-64
2021/12/23 02:29:54;;;;;;;2.17;2.00;;;21.70;58.90;;;;;;5054517;28;20441;-61
2021/12/23 02:32:21;;;;;;;2.20;2.00;;;21.70;58.90;;;;;;5054516;28;20481;-61
2021/12/23 02:34:48;;;;;;;2.60;2.40;;;21.80;58.90;;;;;;5054399;28;20437;-60
2021/12/23 02:37:16;;;;;;;2.17;1.97;;;21.80;58.90;;;;;;5054483;28;20438;-62
2021/12/23 02:39:43;;;;;;;2.37;2.17;;;21.80;58.90;;;;;;5054088;28;20917;-63
2021/12/23 02:42:11;;;;;;;2.60;2.40;;;21.80;58.90;;;;;;5054135;28;20438;-61
2021/12/23 02:44:37;;;;;;;2.10;2.00;;;21.80;58.90;;;;;;5054338;28;20450;-61
2021/12/23 02:47:05;;;;;;;2.60;2.40;;;21.70;58.80;;;;;;5054136;28;20441;-61
2021/12/23 02:49:32;;;;;;;2.33;2.13;;;21.80;58.90;;;;;;5054076;28;20520;-61
2021/12/23 02:51:59;;;;;;;2.30;2.20;;;21.70;58.80;;;;;;5053973;28;20480;-61
2021/12/23 02:54:27;;;;;;;2.10;1.93;;;21.70;58.80;;;;;;5054005;28;20448;-61
2021/12/23 02:56:54;;;;;;;2.23;2.03;;;21.80;58.90;;;;;;5053975;28;20803;-62
2021/12/23 02:59:21;;;;;;;2.43;2.33;;;21.80;58.80;;;;;;5053792;28;20802;-60
2021/12/23 03:01:47;;;;;;;1.97;1.87;;;21.80;58.80;;;;;;5053594;28;20437;-60
2021/12/23 03:04:14;;;;;;;2.57;2.37;;;21.80;58.80;;;;;;5053329;28;20438;-61
2021/12/23 03:06:41;;;;;;;2.53;2.40;;;21.80;58.80;;;;;;5053808;28;20432;-60
2021/12/23 03:09:08;;;;;;;2.40;2.30;;;21.80;58.80;;;;;;5053778;28;20438;-61
2021/12/23 03:11:36;;;;;;;1.63;1.53;;;21.80;58.80;;;;;;5053718;28;20433;-61
2021/12/23 03:14:03;;;;;;;2.60;2.40;;;21.70;58.70;;;;;;5053412;28;20494;-61
2021/12/23 03:16:32;;;;;;;2.20;2.10;;;21.80;58.80;;;;;;5053613;28;20442;-61
2021/12/23 03:18:59;;;;;;;1.87;1.77;;;21.70;58.70;;;;;;5053666;28;20437;-60
2021/12/23 03:21:26;;;;;;;2.20;2.10;;;21.70;58.70;;;;;;5053521;28;20437;-61
2021/12/23 03:23:53;;;;;;;2.03;1.93;;;21.70;58.80;;;;;;5053492;28;20786;-61
2021/12/23 03:26:20;;;;;;;2.00;1.90;;;21.70;58.80;;;;;;5053632;28;20442;-61
2021/12/23 03:28:48;;;;;;;2.27;2.07;;;21.70;58.70;;;;;;5053449;28;20437;-61
2021/12/23 03:31:15;;;;;;;2.50;2.30;;;21.70;58.70;;;;;;5053598;28;20745;-60
2021/12/23 03:33:42;;;;;;;2.50;2.30;;;21.70;58.70;;;;;;5053312;28;20485;-61
2021/12/23 03:36:09;;;;;;;1.80;1.70;;;21.70;58.80;;;;;;5053469;28;20437;-61
2021/12/23 03:38:36;;;;;;;2.03;1.93;;;21.70;58.70;;;;;;5053294;28;20787;-61
2021/12/23 03:41:04;;;;;;;1.90;1.80;;;21.80;58.80;;;;;;5053124;28;20468;-61
2021/12/23 03:43:30;;;;;;;2.23;2.03;;;21.80;58.80;;;;;;5053211;28;20466;-61
2021/12/23 03:45:58;;;;;;;2.33;2.23;;;21.70;58.70;;;;;;5053196;28;20442;-61
2021/12/23 03:48:25;;;;;;;2.23;2.13;;;21.70;58.70;;;;;;5053173;28;20434;-60
2021/12/23 03:50:52;;;;;;;2.70;2.50;;;21.80;58.80;;;;;;5053311;28;20438;-61
2021/12/23 03:53:19;;;;;;;2.30;2.10;;;21.70;58.80;;;;;;5052913;28;20487;-61
2021/12/23 03:55:46;;;;;;;2.30;2.20;;;21.70;58.70;;;;;;5053244;28;20767;-61
2021/12/23 03:58:13;;;;;;;2.30;2.17;;;21.70;58.70;;;;;;5053014;28;20434;-60
2021/12/23 04:00:40;;;;;;;2.57;2.37;;;21.70;58.70;;;;;;5052963;28;20445;-61
2021/12/23 04:03:08;;;;;;;1.90;1.80;;;21.70;58.80;;;;;;5053103;28;20448;-61
2021/12/23 04:05:35;;;;;;;2.33;2.13;;;21.80;58.80;;;;;;5053098;28;20457;-61
2021/12/23 04:08:03;;;;;;;2.50;2.30;;;21.70;58.70;;;;;;5053082;28;20784;-61
2021/12/23 04:10:30;;;;;;;2.03;1.90;;;21.70;58.80;;;;;;5052806;28;20445;-60
2021/12/23 04:12:57;;;;;;;2.67;2.33;;;21.70;58.80;;;;;;5052910;28;20491;-60
2021/12/23 04:15:25;;;;;;;2.40;2.20;;;21.80;58.80;;;;;;5056508;28;20454;-60
2021/12/23 04:17:52;;;;;;;2.97;2.67;;;21.70;58.70;;;;;;5056936;28;20441;-61
2021/12/23 04:20:23;;;;;;;2.90;2.70;;;21.70;58.70;;;;;;5056959;28;20433;-61
2021/12/23 04:22:52;;;;;;;2.60;2.40;;;21.70;58.70;;;;;;5056723;28;20519;-60
2021/12/23 04:25:21;;;;;;;3.10;2.90;;;21.80;58.80;;;;;;5056989;28;20460;-61
2021/12/23 04:27:49;;;;;;;2.63;2.43;;;21.80;58.80;;;;;;5056776;28;20434;-61
2021/12/23 04:30:18;;;;;;;5.90;2.50;;;21.80;58.80;;;;;;5056751;28;20430;-61
2021/12/23 04:32:44;;;;;;;2.50;2.30;;;21.70;58.70;;;;;;5056741;28;20472;-61
2021/12/23 04:35:12;;;;;;;2.60;2.40;;;21.80;58.80;;;;;;5056892;28;20436;-61
2021/12/23 04:37:40;;;;;;;2.60;2.40;;;21.80;58.70;;;;;;5056558;28;20429;-61
2021/12/23 04:40:09;;;;;;;2.90;2.70;;;21.80;58.70;;;;;;5056357;28;20476;-61
2021/12/23 04:42:37;;;;;;;2.60;2.40;;;21.80;58.70;;;;;;5056347;28;20497;-63
2021/12/23 04:45:05;;;;;;;3.23;2.93;;;21.70;58.70;;;;;;5056531;28;20437;-63
2021/12/23 04:47:31;;;;;;;2.30;2.20;;;21.70;58.70;;;;;;5056601;28;20433;-61
2021/12/23 04:49:59;;;;;;;2.47;2.27;;;21.70;58.70;;;;;;5056296;28;20444;-61
2021/12/23 04:52:26;;;;;;;2.83;2.63;;;21.70;58.60;;;;;;5056140;28;20441;-61
2021/12/23 04:54:54;;;;;;;2.77;2.57;;;21.70;58.70;;;;;;5056266;28;20429;-61
2021/12/23 04:57:20;;;;;;;2.63;2.43;;;21.70;58.70;;;;;;5056363;28;20441;-61
2021/12/23 04:59:47;;;;;;;2.90;2.70;;;21.70;58.60;;;;;;5056311;28;20436;-60
2021/12/23 05:02:14;;;;;;;2.73;2.53;;;21.80;58.70;;;;;;5056128;28;20444;-61
2021/12/23 05:04:40;;;;;;;2.70;2.50;;;21.80;58.70;;;;;;5056041;28;20441;-61
2021/12/23 05:07:07;;;;;;;2.67;2.47;;;21.80;58.70;;;;;;5056129;28;20449;-60
2021/12/23 05:09:34;;;;;;;2.83;2.63;;;21.70;58.60;;;;;;5056001;28;20441;-61
2021/12/23 05:12:02;;;;;;;2.60;2.40;;;21.80;58.70;;;;;;5055878;28;20445;-60
2021/12/23 05:14:29;;;;;;;2.30;2.10;;;21.80;58.70;;;;;;5055690;28;20488;-61
2021/12/23 05:16:56;;;;;;;2.70;2.50;;;21.80;58.60;;;;;;5055940;28;20445;-63
2021/12/23 05:19:22;;;;;;;2.90;2.30;;;21.80;58.60;;;;;;5055975;28;20448;-61
2021/12/23 05:21:49;;;;;;;2.27;2.10;;;21.80;58.60;;;;;;5056092;28;20442;-61
2021/12/23 05:24:16;;;;;;;3.10;2.50;;;21.70;58.50;;;;;;5055608;28;20775;-60
2021/12/23 05:26:42;;;;;;;2.87;2.67;;;21.70;58.60;;;;;;5054729;28;20448;-60
2021/12/23 05:29:11;;;;;;;2.40;2.20;;;21.70;58.60;;;;;;5055654;28;20443;-61
2021/12/23 05:31:38;;;;;;;2.53;2.33;;;21.70;58.60;;;;;;5055523;28;20841;-60
2021/12/23 05:34:05;;;;;;;2.23;2.07;;;21.70;58.60;;;;;;5055516;28;20485;-60
2021/12/23 05:36:32;;;;;;;2.80;2.60;;;21.70;58.50;;;;;;5055763;28;20804;-60
2021/12/23 05:38:59;;;;;;;2.70;2.50;;;21.70;58.50;;;;;;5055143;28;20438;-61
2021/12/23 05:41:27;;;;;;;2.90;2.50;;;21.80;58.60;;;;;;5053356;28;20476;-61
2021/12/23 05:43:54;;;;;;;2.60;2.40;;;21.80;58.50;;;;;;5053292;28;21056;-61
2021/12/23 05:46:22;;;;;;;2.77;2.57;;;21.80;58.50;;;;;;5053974;28;20808;-61
2021/12/23 05:48:49;;;;;;;2.70;2.50;;;21.80;58.50;;;;;;5054019;28;20441;-61
2021/12/23 05:51:16;;;;;;;2.60;2.40;;;21.70;58.50;;;;;;5053811;28;20459;-61
2021/12/23 05:53:43;;;;;;;2.57;2.30;;;21.70;58.60;;;;;;5054193;28;20496;-61
2021/12/23 05:56:09;;;;;;;2.90;2.20;;;21.70;58.60;;;;;;5054855;28;20951;-61
2021/12/23 05:58:36;;;;;;;2.03;1.83;;;21.70;58.60;;;;;;5055199;28;20449;-61
2021/12/23 06:01:04;;;;;;;2.93;2.73;;;21.70;58.50;;;;;;5055071;28;20451;-60
2021/12/23 06:03:32;;;;;;;2.57;2.37;;;21.70;58.60;;;;;;5054700;28;20433;-60
2021/12/23 06:05:59;;;;;;;3.53;2.80;;;21.70;58.50;;;;;;5055028;28;20445;-61
2021/12/23 06:08:26;;;;;;;2.70;2.50;;;21.70;58.60;;;;;;5054877;28;20440;-61
2021/12/23 06:10:52;;;;;;;2.50;2.30;;;21.70;58.60;;;;;;5054883;28;20780;-61
2021/12/23 06:13:19;;;;;;;2.07;1.90;;;21.70;58.50;;;;;;5054561;28;20487;-60
2021/12/23 06:15:46;;;;;;;2.80;2.60;;;21.70;58.50;;;;;;5054772;28;20445;-60
2021/12/23 06:18:12;;;;;;;1.97;1.80;;;21.70;58.60;;;;;;5054752;28;20441;-61
2021/12/23 06:20:41;;;;;;;2.30;2.10;;;21.70;58.50;;;;;;5054731;28;20461;-62
2021/12/23 06:23:07;;;;;;;3.17;2.87;;;21.70;58.50;;;;;;5054714;28;20445;-60
2021/12/23 06:25:34;;;;;;;2.57;2.37;;;21.70;58.50;;;;;;5055017;28;20454;-61
2021/12/23 06:28:01;;;;;;;2.90;2.70;;;21.70;58.50;;;;;;5054555;28;20433;-61
2021/12/23 06:30:28;;;;;;;2.33;2.23;;;21.80;58.30;;;;;;5054501;28;20441;-60
2021/12/23 06:32:56;;;;;;;2.60;2.40;;;21.70;58.00;;;;;;5054405;28;20444;-61
2021/12/23 06:35:27;;;;;;;2.40;2.10;;;21.70;57.90;;;;;;5054467;28;20481;-61
2021/12/23 06:37:56;;;;;;;2.60;2.40;;;21.70;57.90;;;;;;5054605;28;20441;-61
2021/12/23 06:40:23;;;;;;;2.40;2.20;;;21.70;57.90;;;;;;5054079;28;20480;-61
2021/12/23 06:42:51;;;;;;;2.70;2.50;;;21.60;57.80;;;;;;5054163;28;20454;-60
2021/12/23 06:45:18;;;;;;;2.53;2.33;;;21.60;57.90;;;;;;5054227;28;20849;-60
2021/12/23 06:47:45;;;;;;;2.70;2.50;;;21.60;57.90;;;;;;5054223;28;20445;-60
2021/12/23 06:50:13;;;;;;;2.40;2.20;;;21.60;57.90;;;;;;5054097;28;20437;-61
2021/12/23 06:52:41;;;;;;;2.87;2.67;;;21.60;57.90;;;;;;5054134;28;20445;-61
2021/12/23 06:55:11;;;;;;;2.10;2.00;;;21.60;57.80;;;;;;5054062;28;20485;-61
2021/12/23 06:57:38;;;;;;;2.57;2.37;;;21.60;57.90;;;;;;5054198;28;20437;-61
2021/12/23 07:00:06;;;;;;;2.67;2.47;;;21.60;57.90;;;;;;5053930;28;20442;-61
2021/12/23 07:02:35;;;;;;;2.60;2.40;;;21.60;57.90;;;;;;5053854;28;20437;-60
2021/12/23 07:05:01;;;;;;;2.30;2.10;;;21.60;57.90;;;;;;5053879;28;20461;-60
2021/12/23 07:07:29;;;;;;;2.67;2.47;;;21.60;57.90;;;;;;5053876;28;20802;-61
2021/12/23 07:09:57;;;;;;;2.50;2.27;;;21.60;57.80;;;;;;5053681;28;21004;-61
2021/12/23 07:12:25;;;;;;;2.50;2.33;;;21.60;57.90;;;;;;5053607;28;20472;-61
2021/12/23 07:14:52;;;;;;;2.10;2.00;;;21.60;57.80;;;;;;5053639;28;20838;-60
2021/12/23 07:17:18;;;;;;;2.27;2.07;;;21.60;57.70;;;;;;5053612;28;20948;-61
2021/12/23 07:19:45;;;;;;;2.43;2.10;;;21.60;57.80;;;;;;5053581;28;20440;-62
2021/12/23 07:22:12;;;;;;;2.57;2.37;;;21.60;57.70;;;;;;5053666;28;20437;-60
2021/12/23 07:24:39;;;;;;;2.53;2.30;;;21.60;57.80;;;;;;5053468;28;20434;-62
2021/12/23 07:27:06;;;;;;;2.93;2.70;;;21.60;57.70;;;;;;5053580;28;20441;-63
2021/12/23 07:29:35;;;;;;;2.07;1.97;;;21.60;57.80;;;;;;5053494;28;20445;-61
2021/12/23 07:32:03;;;;;;;2.47;2.27;;;21.60;57.70;;;;;;5053573;28;20425;-60
2021/12/23 07:34:30;;;;;;;2.20;2.00;;;21.60;57.70;;;;;;5053323;28;20876;-61
2021/12/23 07:36:57;;;;;;;2.23;2.13;;;21.60;57.70;;;;;;5053369;28;20445;-61
2021/12/23 07:39:24;;;;;;;2.20;2.00;;;21.60;57.70;;;;;;5053330;28;20442;-61
2021/12/23 07:41:51;;;;;;;2.50;2.30;;;21.60;57.70;;;;;;5053343;28;20438;-61
2021/12/23 07:44:20;;;;;;;2.67;2.47;;;21.60;57.70;;;;;;5053260;28;20433;-61
2021/12/23 07:46:49;;;;;;;2.90;1.83;;;21.60;57.70;;;;;;5053226;28;20468;-61
2021/12/23 07:49:16;;;;;;;1.83;1.70;;;21.60;57.70;;;;;;5052981;28;20440;-61
2021/12/23 07:51:43;;;;;;;2.50;2.30;;;21.60;57.70;;;;;;5053250;28;20452;-61
2021/12/23 07:54:10;;;;;;;2.60;2.40;;;21.60;57.70;;;;;;5053121;28;20484;-61
2021/12/23 07:56:37;;;;;;;2.27;2.07;;;21.60;57.70;;;;;;5053219;28;20461;-61
2021/12/23 07:59:04;;;;;;;2.47;2.33;;;21.60;57.70;;;;;;5053188;28;20929;-61
2021/12/23 08:01:31;;;;;;;2.23;2.13;;;21.60;57.60;;;;;;5053182;28;20464;-60
2021/12/23 08:03:59;;;;;;;2.37;2.17;;;21.60;57.70;;;;;;5053132;28;20441;-60
2021/12/23 08:06:26;;;;;;;2.50;2.30;;;21.60;57.60;;;;;;5053130;28;20440;-61
2021/12/23 08:08:53;;;;;;;2.57;2.37;;;21.60;57.70;;;;;;5053086;28;20442;-63
2021/12/23 08:11:20;;;;;;;2.57;2.37;;;21.60;57.60;;;;;;5052977;28;20441;-60
2021/12/23 08:13:47;;;;;;;1.93;1.83;;;21.60;57.60;;;;;;5052662;28;20482;-63
2021/12/23 08:16:13;;;;;;;2.10;1.90;;;21.60;57.70;;;;;;5052972;28;20441;-61
2021/12/23 08:18:40;;;;;;;2.50;2.30;;;21.60;57.70;;;;;;5052971;28;20437;-60
2021/12/23 08:21:09;;;;;;;2.50;2.30;;;21.60;57.60;;;;;;5052931;28;20924;-60
2021/12/23 08:23:35;;;;;;;2.40;1.83;;;21.60;57.60;;;;;;5052881;28;20465;-61
2021/12/23 08:26:05;;;;;;;4.80;1.70;;;21.50;57.60;;;;;;5052935;28;20444;-61
2021/12/23 08:28:32;;;;;;;2.70;2.50;;;21.60;57.70;;;;;;5052947;28;20441;-61
2021/12/23 08:31:00;;;;;;;2.50;2.30;;;21.50;57.60;;;;;;5052910;28;20438;-61
2021/12/23 08:33:27;;;;;;;2.77;2.57;;;21.50;57.70;;;;;;5052842;28;20457;-60
2021/12/23 08:35:54;;;;;;;2.23;2.13;;;21.50;57.70;;;;;;5052835;28;20436;-61
2021/12/23 08:38:22;;;;;;;2.50;2.30;;;21.50;57.70;;;;;;5052757;28;20802;-63
2021/12/23 08:40:48;;;;;;;2.47;2.33;;;21.50;57.70;;;;;;5052463;28;20476;-61
2021/12/23 08:43:15;;;;;;;2.27;2.10;;;21.50;57.70;;;;;;5052504;28;20811;-61
2021/12/23 08:45:42;;;;;;;2.20;2.10;;;21.50;57.70;;;;;;5052807;28;20449;-60
2021/12/23 08:48:09;;;;;;;2.77;2.47;;;21.50;57.80;;;;;;5052446;28;20446;-60
2021/12/23 08:50:35;;;;;;;4.20;2.50;;;21.50;57.80;;;;;;5052637;28;20828;-61
2021/12/23 08:53:03;;;;;;;3.90;3.13;;;21.50;58.40;;;;;;5052430;28;20441;-61
2021/12/23 08:55:33;;;;;;;2.70;2.50;;;21.40;57.90;;;;;;5052657;28;20485;-61
2021/12/23 08:58:03;;;;;;;2.70;2.50;;;21.40;58.60;;;;;;5052511;28;20444;-61
2021/12/23 09:00:31;;;;;;;3.70;2.60;;;21.40;58.70;;;;;;5053044;28;20444;-61
2021/12/23 09:02:58;;;;;;;2.50;2.30;;;21.40;58.60;;;;;;5058563;28;20442;-64
2021/12/23 09:05:25;;;;;;;3.03;2.33;;;21.50;58.50;;;;;;5055986;28;20438;-60
2021/12/23 09:07:52;;;;;;;2.83;2.63;;;21.50;58.50;;;;;;5056106;28;20759;-63
2021/12/23 09:10:20;;;;;;;3.53;2.80;;;21.50;58.40;;;;;;5056079;28;20437;-61
2021/12/23 09:12:48;;;;;;;3.23;3.03;;;21.50;58.40;;;;;;5055820;28;20450;-61
2021/12/23 09:15:15;;;;;;;6.63;2.40;;;21.50;58.40;;;;;;5055552;28;20477;-64
2021/12/23 09:17:42;;;;;;;2.63;2.43;;;21.50;58.30;;;;;;5063109;28;20426;-62
2021/12/23 09:20:11;;;;;;;2.60;2.40;;;21.50;58.30;;;;;;5055735;28;20448;-61
2021/12/23 09:22:39;;;;;;;2.47;2.27;;;21.50;58.30;;;;;;5057197;28;20437;-61
2021/12/23 09:25:07;;;;;;;3.50;2.73;;;21.50;58.30;;;;;;5075674;28;20448;-61
2021/12/23 09:27:39;;;;;;;2.60;2.40;;;21.50;58.30;;;;;;5075910;28;20448;-61
2021/12/23 09:32:53;;;;;;;2.30;2.10;;;21.60;58.20;;;;;;5075588;28;20428;-61
2021/12/23 09:35:22;;;;;;;2.40;2.20;;;21.50;58.20;;;;;;5072818;28;20480;-63
2021/12/23 09:37:50;;;;;;;3.07;2.57;;;21.50;58.10;;;;;;5073796;28;20436;-61
2021/12/23 09:40:18;;;;;;;2.20;2.10;;;21.50;58.20;;;;;;5066235;28;20456;-61
2021/12/23 09:42:46;;;;;;;2.83;2.63;;;21.50;58.20;;;;;;5075264;28;20459;-61
2021/12/23 09:45:18;;;;;;;3.27;2.50;;;21.50;58.20;;;;;;5075281;28;20515;-63
2021/12/23 09:47:47;;;;;;;3.33;2.23;;;21.50;58.20;;;;;;5075438;28;20469;-63
2021/12/23 09:50:16;;;;;;;2.77;2.57;;;21.50;58.20;;;;;;5075267;28;20436;-61
2021/12/23 09:52:45;;;;;;;2.50;2.30;;;21.50;58.20;;;;;;5075352;28;20437;-63
2021/12/23 09:55:16;;;;;;;2.73;2.53;;;21.50;58.20;;;;;;5075262;28;20487;-61
2021/12/23 09:57:45;;;;;;;2.47;2.27;;;21.40;58.10;;;;;;5075175;28;20433;-64
2021/12/23 10:00:12;;;;;;;2.87;2.67;;;21.40;58.20;;;;;;5074927;28;20433;-60
2021/12/23 10:02:42;;;;;;;3.20;2.00;;;21.40;58.20;;;;;;5074968;28;20433;-65
2021/12/23 10:05:12;;;;;;;3.17;2.87;;;21.60;58.30;;;;;;5075009;28;20444;-65
2021/12/23 10:07:40;;;;;;;2.43;1.80;;;21.70;58.20;;;;;;5074925;28;21289;-63
2021/12/23 10:10:12;;;;;;;2.50;2.30;;;21.70;58.10;;;;;;5074843;28;20492;-63
2021/12/23 10:32:58;;;;;;;2.70;2.50;;;21.70;59.60;;;;;;5074450;28;20428;-64
2021/12/23 10:38:17;;;;;;;3.80;2.50;;;21.70;59.20;;;;;;5074230;28;20585;-63
2021/12/23 10:40:47;;;;;;;2.23;2.03;;;21.70;59.10;;;;;;5073630;28;20474;-62
2021/12/23 10:43:25;;;;;;;2.70;2.50;;;21.70;59.00;;;;;;5074110;28;20792;-63
2021/12/23 10:45:56;;;;;;;2.77;2.37;;;21.70;58.90;;;;;;5073598;28;20470;-63
2021/12/23 10:48:24;;;;;;;2.50;2.30;;;21.70;58.90;;;;;;5073880;28;20436;-63
2021/12/23 10:50:58;;;;;;;2.70;2.50;;;21.80;58.70;;;;;;5073547;28;20475;-63
2021/12/23 10:53:44;;;;;;;2.50;2.30;;;21.80;58.60;;;;;;5073804;28;20486;-63
2021/12/23 10:59:13;;;;;;;2.93;2.40;;;21.90;58.50;;;;;;5050043;28;20432;-61
2021/12/23 11:02:03;;;;;;;2.50;2.20;;;22.00;58.50;;;;;;5073142;28;20438;-62
2021/12/23 11:04:35;;;;;;;2.87;2.20;;;22.10;58.60;;;;;;5073467;28;20535;-64
2021/12/23 11:07:19;;;;;;;3.60;1.90;;;22.10;58.50;;;;;;5073320;28;20445;-63
2021/12/23 11:10:05;;;;;;;4.90;2.80;;;22.10;58.50;;;;;;5073168;28;20444;-64
2021/12/23 11:38:09;;;;;;;1.77;1.67;;;22.30;58.60;;;;;;5068210;28;20436;-63
2021/12/23 11:40:56;;;;;;;3.73;2.00;;;22.30;58.60;;;;;;5073369;28;20473;-63
2021/12/23 11:43:30;;;;;;;2.00;1.90;;;22.30;58.60;;;;;;5072688;28;20556;-63
2021/12/23 11:45:58;;;;;;;1.90;1.80;;;22.30;58.60;;;;;;5071381;28;20445;-63
2021/12/23 11:48:25;;;;;;;1.77;1.67;;;22.30;58.60;;;;;;5072810;28;20444;-63
2021/12/23 11:51:05;;;;;;;2.13;2.03;;;22.30;58.60;;;;;;5072901;28;20444;-62
2021/12/23 11:53:32;;;;;;;2.60;2.40;;;22.40;58.60;;;;;;5072954;28;20460;-63
2021/12/23 11:56:01;;;;;;;2.50;2.30;;;22.30;58.60;;;;;;5072970;28;20499;-65
2021/12/23 11:58:28;;;;;;;2.00;1.90;;;22.40;58.70;;;;;;5073142;28;20440;-63
2021/12/23 12:01:07;;;;;;;1.97;1.87;;;22.40;58.60;;;;;;5073113;28;20465;-63
2021/12/23 12:03:40;;;;;;;2.40;2.20;;;22.40;58.50;;;;;;5073047;28;20512;-63
2021/12/23 12:06:15;;;;;;;2.30;2.10;;;22.40;58.60;;;;;;5072889;28;20433;-62
2021/12/23 12:08:42;;;;;;;1.70;1.60;;;22.40;58.50;;;;;;5072064;28;20801;-63
2021/12/23 12:11:20;;;;;;;2.30;2.20;;;22.40;58.50;;;;;;5072403;28;20837;-62
2021/12/23 12:13:48;;;;;;;2.07;1.97;;;22.50;58.60;;;;;;5072615;28;20444;-63
2021/12/23 12:16:32;;;;;;;1.93;1.83;;;22.50;58.60;;;;;;5072696;28;21008;-63
2021/12/23 12:19:00;;;;;;;2.27;2.07;;;22.50;58.60;;;;;;5072714;28;20448;-62
2021/12/23 12:21:31;;;;;;;1.97;1.87;;;22.50;58.50;;;;;;5072682;28;20437;-62
2021/12/23 12:24:13;;;;;;;9.90;4.27;;;22.50;59.10;;;;;;5072512;28;20436;-65
2021/12/23 12:26:56;;;;;;;7.10;4.07;;;22.50;57.80;;;;;;5072137;28;20445;-65
2021/12/23 12:29:32;;;;;;;5.63;3.50;;;22.40;57.90;;;;;;5071758;28;20437;-65
2021/12/23 12:31:59;;;;;;;10.87;3.97;;;22.20;58.00;;;;;;5072473;28;20943;-65
2021/12/23 12:34:32;;;;;;;6.47;3.20;;;22.10;58.10;;;;;;5073367;28;20443;-65
2021/12/23 12:37:00;;;;;;;5.10;3.50;;;22.10;58.10;;;;;;5076487;28;20452;-65
2021/12/23 12:39:32;;;;;;;5.73;3.10;;;22.10;58.20;;;;;;5076627;28;20870;-66
2021/12/23 12:42:04;;;;;;;11.30;3.30;;;22.10;58.20;;;;;;5075959;28;20456;-65
2021/12/23 12:44:47;;;;;;;4.60;3.00;;;22.00;58.20;;;;;;5076492;28;20480;-65
2021/12/23 12:47:25;;;;;;;4.13;2.37;;;22.00;58.10;;;;;;5075881;28;20866;-65
2021/12/23 12:50:04;;;;;;;6.80;3.30;;;22.00;58.20;;;;;;5076574;28;20833;-65
2021/12/23 12:52:33;;;;;;;7.40;2.93;;;22.00;58.20;;;;;;5076145;28;20466;-65
2021/12/23 12:55:04;;;;;;;5.23;3.60;;;22.00;58.20;;;;;;5074847;28;20472;-65
2021/12/23 12:57:38;;;;;;;27.33;3.53;;;22.00;58.10;;;;;;5076294;28;20436;-64
2021/12/23 13:00:29;;;;;;;9.73;4.17;;;21.90;58.00;;;;;;5075062;28;20497;-65
2021/12/23 13:02:57;;;;;;;7.60;3.13;;;21.90;57.90;;;;;;5075961;28;20448;-65
2021/12/23 13:05:31;;;;;;;5.63;2.50;;;21.80;58.10;;;;;;5076142;28;20447;-65
2021/12/23 13:08:05;;;;;;;6.33;3.27;;;21.80;58.10;;;;;;5076159;28;20432;-65
2021/12/23 13:10:34;;;;;;;10.63;2.73;;;21.80;58.10;;;;;;5075974;28;20476;-65
2021/12/23 13:13:06;;;;;;;7.27;3.30;;;21.80;58.70;;;;;;5075978;28;20456;-65
2021/12/23 13:15:35;;;;;;;5.23;3.87;;;21.90;58.20;;;;;;5075804;28;20492;-65
2021/12/23 13:18:05;;;;;;;4.70;2.70;;;21.90;58.50;;;;;;5075964;28;20456;-65
2021/12/23 13:20:36;;;;;;;7.50;3.30;;;21.90;58.60;;;;;;5075865;28;20783;-65
2021/12/23 13:23:06;;;;;;;3.80;3.40;;;21.90;58.50;;;;;;5065325;28;20517;-65
2021/12/23 13:25:34;;;;;;;4.00;2.87;;;21.90;58.50;;;;;;5055715;28;20450;-65
2021/12/23 13:28:06;;;;;;;2.70;2.50;;;21.90;58.50;;;;;;5055856;28;20444;-65
2021/12/23 13:30:33;;;;;;;3.03;2.70;;;21.90;58.40;;;;;;5055608;28;20441;-65
2021/12/23 13:33:00;;;;;;;3.97;2.10;;;22.00;58.50;;;;;;5055347;28;20442;-65
2021/12/23 13:35:29;;;;;;;5.13;3.00;;;21.90;58.60;;;;;;5055716;28;20477;-65
2021/12/23 13:37:56;;;;;;;3.53;2.90;;;22.00;59.00;;;;;;5054166;28;20449;-65
2021/12/23 13:40:28;;;;;;;2.77;2.57;;;22.00;58.90;;;;;;5055350;28;20465;-65
2021/12/23 13:42:54;;;;;;;4.57;2.50;;;22.00;58.80;;;;;;5055410;28;20464;-66
2021/12/23 13:45:23;;;;;;;7.23;3.47;;;22.00;58.90;;;;;;5055372;28;20433;-65
2021/12/23 13:47:53;;;;;;;6.67;3.30;;;21.90;58.40;;;;;;5054534;28;20434;-65
2021/12/23 13:50:20;;;;;;;3.73;2.67;;;21.80;58.80;;;;;;5055352;28;20466;-65
2021/12/23 13:52:49;;;;;;;3.30;2.63;;;21.80;58.80;;;;;;5055130;28;20441;-66